sensor_id;sensor_type;location;lat;lon;timestamp;pressure;altitude;pressure_sealevel;temperature;humidity
45050;BME280;61798;48.048;-1.928;2024-03-02T07:04:18;97930.09;;;2.92;100.00
45050;BME280;61798;48.048;-1.928;2024-03-02T07:07:12;97946.09;;;3.11;100.00
45050;BME280;61798;48.048;-1.928;2024-03-02T07:09:34;97944.75;;;2.94;100.00
45050;BME280;61798;48.048;-1.928;2024-03-02T07:11:44;97957.72;;;3.10;100.00
45050;BME280;61798;48.048;-1.928;2024-03-02T07:14:09;97912.69;;;2.77;100.00
45050;BME280;61798;48.048;-1.928;2024-03-02T07:16:26;97950.78;;;3.09;100.00
45050;BME280;61798;48.048;-1.928;2024-03-02T07:18:42;97933.38;;;2.94;100.00
45050;BME280;61798;48.048;-1.928;2024-03-02T07:21:04;97958.94;;;3.07;100.00
45050;BME280;61798;48.048;-1.928;2024-03-02T07:23:13;97979.03;;;3.22;100.00
45050;BME280;61798;48.048;-1.928;2024-03-02T07:25:22;97911.00;;;2.83;100.00
45050;BME280;61798;48.048;-1.928;2024-03-02T07:27:32;97926.47;;;2.86;100.00
45050;BME280;61798;48.048;-1.928;2024-03-02T07:29:43;97951.41;;;3.04;100.00
45050;BME280;61798;48.048;-1.928;2024-03-02T07:31:55;97939.00;;;3.04;100.00
45050;BME280;61798;48.048;-1.928;2024-03-02T07:34:07;97934.56;;;2.98;100.00
45050;BME280;61798;48.048;-1.928;2024-03-02T07:36:17;97952.38;;;3.16;100.00
45050;BME280;61798;48.048;-1.928;2024-03-02T07:39:10;97915.38;;;3.03;100.00
45050;BME280;61798;48.048;-1.928;2024-03-02T07:41:40;97843.69;;;3.18;100.00
45050;BME280;61798;48.048;-1.928;2024-03-02T07:44:04;97851.13;;;3.28;100.00
45050;BME280;61798;48.048;-1.928;2024-03-02T07:46:15;97838.75;;;3.22;100.00
45050;BME280;61798;48.048;-1.928;2024-03-02T07:48:29;97821.56;;;3.05;100.00
45050;BME280;61798;48.048;-1.928;2024-03-02T07:50:50;97858.59;;;3.38;100.00
45050;BME280;61798;48.048;-1.928;2024-03-02T07:53:05;97835.31;;;3.21;100.00
45050;BME280;61798;48.048;-1.928;2024-03-02T07:55:32;97881.13;;;3.47;100.00
45050;BME280;61798;48.048;-1.928;2024-03-02T07:57:55;97886.59;;;3.53;100.00
45050;BME280;61798;48.048;-1.928;2024-03-02T08:00:52;97884.16;;;3.51;100.00
45050;BME280;61798;48.048;-1.928;2024-03-02T08:03:12;97810.75;;;3.07;100.00
45050;BME280;61798;48.048;-1.928;2024-03-02T08:05:26;97869.34;;;3.43;100.00
45050;BME280;61798;48.048;-1.928;2024-03-02T08:07:38;97827.63;;;3.13;100.00
45050;BME280;61798;48.048;-1.928;2024-03-02T08:09:54;97819.94;;;3.04;100.00
45050;BME280;61798;48.048;-1.928;2024-03-02T08:12:25;97882.31;;;3.52;100.00
45050;BME280;61798;48.048;-1.928;2024-03-02T08:14:38;97825.22;;;3.04;100.00
45050;BME280;61798;48.048;-1.928;2024-03-02T08:17:16;97853.44;;;3.17;100.00
45050;BME280;61798;48.048;-1.928;2024-03-02T08:20:05;97840.41;;;3.16;100.00
45050;BME280;61798;48.048;-1.928;2024-03-02T08:22:23;97841.88;;;3.12;100.00
45050;BME280;61798;48.048;-1.928;2024-03-02T08:24:40;97866.69;;;3.43;100.00
45050;BME280;61798;48.048;-1.928;2024-03-02T08:27:00;97872.00;;;3.43;100.00
45050;BME280;61798;48.048;-1.928;2024-03-02T08:29:16;97824.97;;;3.13;100.00
45050;BME280;61798;48.048;-1.928;2024-03-02T08:31:34;97886.00;;;3.51;100.00
45050;BME280;61798;48.048;-1.928;2024-03-02T08:33:53;97860.91;;;3.27;100.00
45050;BME280;61798;48.048;-1.928;2024-03-02T08:36:01;97869.97;;;3.38;100.00
45050;BME280;61798;48.048;-1.928;2024-03-02T08:38:41;97889.44;;;3.51;100.00
45050;BME280;61798;48.048;-1.928;2024-03-02T08:41:53;97865.94;;;3.36;100.00
45050;BME280;61798;48.048;-1.928;2024-03-02T08:44:09;97879.09;;;3.49;100.00
45050;BME280;61798;48.048;-1.928;2024-03-02T08:46:55;97840.34;;;3.30;100.00
45050;BME280;61798;48.048;-1.928;2024-03-02T08:49:22;97845.03;;;3.27;100.00
45050;BME280;61798;48.048;-1.928;2024-03-02T08:51:45;97825.09;;;3.25;100.00
45050;BME280;61798;48.048;-1.928;2024-03-02T08:54:39;97865.69;;;3.44;100.00
45050;BME280;61798;48.048;-1.928;2024-03-02T08:57:54;97848.88;;;3.32;100.00
45050;BME280;61798;48.048;-1.928;2024-03-02T09:00:50;97891.47;;;3.56;100.00
45050;BME280;61798;48.048;-1.928;2024-03-02T09:03:01;97864.88;;;3.44;100.00
45050;BME280;61798;48.048;-1.928;2024-03-02T09:05:53;97911.69;;;3.76;100.00
45050;BME280;61798;48.048;-1.928;2024-03-02T09:14:27;97881.53;;;3.77;100.00
45050;BME280;61798;48.048;-1.928;2024-03-02T09:16:44;97883.28;;;3.83;100.00
45050;BME280;61798;48.048;-1.928;2024-03-02T09:19:04;97913.66;;;4.06;100.00
45050;BME280;61798;48.048;-1.928;2024-03-02T09:21:28;97913.38;;;4.15;100.00
45050;BME280;61798;48.048;-1.928;2024-03-02T09:23:48;97877.97;;;3.90;100.00
45050;BME280;61798;48.048;-1.928;2024-03-02T09:25:57;97894.53;;;4.04;100.00
45050;BME280;61798;48.048;-1.928;2024-03-02T09:28:07;97877.59;;;4.05;100.00
45050;BME280;61798;48.048;-1.928;2024-03-02T09:30:32;97890.50;;;4.20;100.00
45050;BME280;61798;48.048;-1.928;2024-03-02T09:33:03;97912.00;;;4.31;100.00
45050;BME280;61798;48.048;-1.928;2024-03-02T09:35:09;97920.56;;;4.52;100.00
45050;BME280;61798;48.048;-1.928;2024-03-02T09:37:39;97908.13;;;4.52;100.00
45050;BME280;61798;48.048;-1.928;2024-03-02T09:40:17;97863.91;;;4.27;100.00
45050;BME280;61798;48.048;-1.928;2024-03-02T09:42:44;97890.75;;;4.38;100.00
45050;BME280;61798;48.048;-1.928;2024-03-02T09:46:09;97918.88;;;4.58;100.00
45050;BME280;61798;48.048;-1.928;2024-03-02T09:48:23;97905.63;;;4.58;100.00
45050;BME280;61798;48.048;-1.928;2024-03-02T09:50:30;97929.13;;;4.73;100.00
45050;BME280;61798;48.048;-1.928;2024-03-02T09:52:38;97924.94;;;4.65;100.00
45050;BME280;61798;48.048;-1.928;2024-03-02T09:54:58;98019.13;;;4.93;100.00
45050;BME280;61798;48.048;-1.928;2024-03-02T09:57:19;98003.03;;;4.69;100.00
45050;BME280;61798;48.048;-1.928;2024-03-02T10:00:12;98078.47;;;5.18;100.00
45050;BME280;61798;48.048;-1.928;2024-03-02T10:02:25;98026.47;;;4.91;100.00
45050;BME280;61798;48.048;-1.928;2024-03-02T10:04:34;98019.41;;;4.85;100.00
45050;BME280;61798;48.048;-1.928;2024-03-02T10:07:15;98098.84;;;5.24;100.00
45050;BME280;61798;48.048;-1.928;2024-03-02T10:09:30;98083.84;;;5.11;100.00
45050;BME280;61798;48.048;-1.928;2024-03-02T10:12:03;98067.09;;;5.11;100.00
45050;BME280;61798;48.048;-1.928;2024-03-02T10:14:32;98111.22;;;5.31;100.00
45050;BME280;61798;48.048;-1.928;2024-03-02T10:17:24;98100.53;;;5.37;100.00
45050;BME280;61798;48.048;-1.928;2024-03-02T10:20:24;98146.63;;;5.62;100.00
45050;BME280;61798;48.048;-1.928;2024-03-02T10:23:16;98114.25;;;5.34;100.00
45050;BME280;61798;48.048;-1.928;2024-03-02T10:26:18;98169.13;;;5.78;100.00
45050;BME280;61798;48.048;-1.928;2024-03-02T10:28:26;98169.78;;;5.74;100.00
45050;BME280;61798;48.048;-1.928;2024-03-02T10:30:57;98168.94;;;5.61;100.00
45050;BME280;61798;48.048;-1.928;2024-03-02T10:33:33;98205.66;;;6.02;100.00
45050;BME280;61798;48.048;-1.928;2024-03-02T10:35:43;98203.00;;;6.02;100.00
45050;BME280;61798;48.048;-1.928;2024-03-02T10:37:58;98194.81;;;6.03;100.00
45050;BME280;61798;48.048;-1.928;2024-03-02T10:40:32;98217.47;;;6.25;100.00
45050;BME280;61798;48.048;-1.928;2024-03-02T10:43:08;98224.50;;;6.19;100.00
45050;BME280;61798;48.048;-1.928;2024-03-02T10:45:37;98217.41;;;6.32;100.00
45050;BME280;61798;48.048;-1.928;2024-03-02T10:48:02;98266.56;;;6.60;100.00
45050;BME280;61798;48.048;-1.928;2024-03-02T10:56:41;98266.94;;;6.45;100.00
45050;BME280;61798;48.048;-1.928;2024-03-02T11:00:04;98319.09;;;6.96;100.00
45050;BME280;61798;48.048;-1.928;2024-03-02T11:02:34;98337.66;;;7.03;100.00
45050;BME280;61798;48.048;-1.928;2024-03-02T11:05:30;98314.66;;;6.90;100.00
45050;BME280;61798;48.048;-1.928;2024-03-02T11:07:40;98360.06;;;7.26;100.00
45050;BME280;61798;48.048;-1.928;2024-03-02T11:10:09;98379.47;;;7.14;100.00
45050;BME280;61798;48.048;-1.928;2024-03-02T11:14:02;98333.84;;;6.49;100.00
45050;BME280;61798;48.048;-1.928;2024-03-02T11:17:00;98373.09;;;7.03;100.00
45050;BME280;61798;48.048;-1.928;2024-03-02T11:19:16;98390.00;;;7.09;100.00
45050;BME280;61798;48.048;-1.928;2024-03-02T11:27:03;98410.16;;;6.86;100.00
45050;BME280;61798;48.048;-1.928;2024-03-02T11:29:43;98420.59;;;6.87;100.00
45050;BME280;61798;48.048;-1.928;2024-03-02T11:32:06;98398.06;;;6.71;100.00
45050;BME280;61798;48.048;-1.928;2024-03-02T11:34:30;98373.13;;;6.65;100.00
45050;BME280;61798;48.048;-1.928;2024-03-02T11:42:32;98432.59;;;7.09;100.00
45050;BME280;61798;48.048;-1.928;2024-03-02T11:45:09;98434.19;;;6.98;100.00
45050;BME280;61798;48.048;-1.928;2024-03-02T11:47:35;98433.53;;;6.84;100.00
45050;BME280;61798;48.048;-1.928;2024-03-02T12:01:39;98398.66;;;7.35;100.00
45050;BME280;61798;48.048;-1.928;2024-03-02T12:13:01;98483.06;;;7.54;100.00
45050;BME280;61798;48.048;-1.928;2024-03-02T12:58:05;98476.41;;;7.75;100.00
45050;BME280;61798;48.048;-1.928;2024-03-02T13:01:36;98474.81;;;7.98;100.00
45050;BME280;61798;48.048;-1.928;2024-03-02T13:05:04;98475.53;;;8.18;100.00
45050;BME280;61798;48.048;-1.928;2024-03-02T13:15:35;98469.75;;;8.33;100.00
45050;BME280;61798;48.048;-1.928;2024-03-02T13:18:13;98504.75;;;8.12;100.00
45050;BME280;61798;48.048;-1.928;2024-03-02T13:23:26;98518.00;;;7.64;100.00
45050;BME280;61798;48.048;-1.928;2024-03-02T13:31:03;98513.63;;;7.82;100.00
45050;BME280;61798;48.048;-1.928;2024-03-02T13:42:15;98514.41;;;8.13;100.00
45050;BME280;61798;48.048;-1.928;2024-03-02T13:48:29;98527.03;;;8.06;100.00
45050;BME280;61798;48.048;-1.928;2024-03-02T13:52:02;98492.81;;;8.03;100.00
45050;BME280;61798;48.048;-1.928;2024-03-02T14:00:22;98531.94;;;8.45;100.00
45050;BME280;61798;48.048;-1.928;2024-03-02T14:09:33;98544.00;;;8.48;100.00
45050;BME280;61798;48.048;-1.928;2024-03-02T14:26:55;98551.00;;;8.49;100.00
45050;BME280;61798;48.048;-1.928;2024-03-02T14:35:09;98551.25;;;8.60;100.00
45050;BME280;61798;48.048;-1.928;2024-03-02T14:37:16;98540.19;;;8.20;100.00
45050;BME280;61798;48.048;-1.928;2024-03-02T14:39:23;98570.47;;;8.38;100.00
45050;BME280;61798;48.048;-1.928;2024-03-02T14:45:49;98571.31;;;8.50;100.00
45050;BME280;61798;48.048;-1.928;2024-03-02T14:48:35;98547.16;;;8.57;100.00
45050;BME280;61798;48.048;-1.928;2024-03-02T14:50:47;98516.41;;;8.30;100.00
45050;BME280;61798;48.048;-1.928;2024-03-02T14:52:53;98517.78;;;8.33;100.00
45050;BME280;61798;48.048;-1.928;2024-03-02T14:55:06;98561.84;;;8.66;100.00
45050;BME280;61798;48.048;-1.928;2024-03-02T14:57:15;98578.53;;;8.86;100.00
45050;BME280;61798;48.048;-1.928;2024-03-02T14:59:27;98551.13;;;8.54;100.00
45050;BME280;61798;48.048;-1.928;2024-03-02T15:01:34;98582.34;;;8.54;100.00
45050;BME280;61798;48.048;-1.928;2024-03-02T15:03:42;98593.38;;;8.57;100.00
45050;BME280;61798;48.048;-1.928;2024-03-02T15:05:48;98592.03;;;8.67;100.00
45050;BME280;61798;48.048;-1.928;2024-03-02T15:07:57;98594.19;;;8.58;100.00
45050;BME280;61798;48.048;-1.928;2024-03-02T15:20:41;98593.56;;;8.32;100.00
45050;BME280;61798;48.048;-1.928;2024-03-02T15:24:22;98593.72;;;8.06;100.00
45050;BME280;61798;48.048;-1.928;2024-03-02T15:27:21;98596.19;;;8.08;100.00
45050;BME280;61798;48.048;-1.928;2024-03-02T15:38:27;98600.03;;;8.12;100.00
45050;BME280;61798;48.048;-1.928;2024-03-02T15:40:50;98606.28;;;8.18;100.00
45050;BME280;61798;48.048;-1.928;2024-03-02T16:11:34;98604.84;;;8.46;100.00
45050;BME280;61798;48.048;-1.928;2024-03-02T16:21:52;98589.50;;;8.41;100.00
45050;BME280;61798;48.048;-1.928;2024-03-02T16:24:29;98599.84;;;8.38;100.00
45050;BME280;61798;48.048;-1.928;2024-03-02T16:26:48;98611.81;;;8.47;100.00
45050;BME280;61798;48.048;-1.928;2024-03-02T16:28:56;98619.47;;;8.43;100.00
45050;BME280;61798;48.048;-1.928;2024-03-02T16:31:02;98614.94;;;8.44;100.00
45050;BME280;61798;48.048;-1.928;2024-03-02T16:33:08;98630.50;;;8.47;100.00
45050;BME280;61798;48.048;-1.928;2024-03-02T16:40:25;98634.34;;;8.51;100.00
45050;BME280;61798;48.048;-1.928;2024-03-02T16:43:33;98613.63;;;8.34;100.00
45050;BME280;61798;48.048;-1.928;2024-03-02T16:45:39;98634.53;;;8.38;100.00
45050;BME280;61798;48.048;-1.928;2024-03-02T16:47:47;98653.56;;;8.41;100.00
45050;BME280;61798;48.048;-1.928;2024-03-02T16:49:53;98650.03;;;8.29;100.00
45050;BME280;61798;48.048;-1.928;2024-03-02T16:51:59;98659.78;;;8.23;100.00
45050;BME280;61798;48.048;-1.928;2024-03-02T16:54:05;98652.59;;;8.23;100.00
45050;BME280;61798;48.048;-1.928;2024-03-02T16:56:11;98642.28;;;7.96;100.00
45050;BME280;61798;48.048;-1.928;2024-03-02T16:58:17;98661.13;;;8.13;100.00
45050;BME280;61798;48.048;-1.928;2024-03-02T17:00:24;98646.06;;;7.88;100.00
45050;BME280;61798;48.048;-1.928;2024-03-02T17:02:30;98688.13;;;8.05;100.00
45050;BME280;61798;48.048;-1.928;2024-03-02T17:04:36;98691.25;;;8.02;100.00
45050;BME280;61798;48.048;-1.928;2024-03-02T17:06:42;98703.41;;;7.98;100.00
45050;BME280;61798;48.048;-1.928;2024-03-02T17:08:48;98705.03;;;7.99;100.00
45050;BME280;61798;48.048;-1.928;2024-03-02T17:10:55;98713.91;;;7.92;100.00
45050;BME280;61798;48.048;-1.928;2024-03-02T17:13:01;98704.00;;;7.81;100.00
45050;BME280;61798;48.048;-1.928;2024-03-02T17:15:07;98705.78;;;7.87;100.00
45050;BME280;61798;48.048;-1.928;2024-03-02T17:17:13;98687.63;;;7.77;100.00
45050;BME280;61798;48.048;-1.928;2024-03-02T17:19:20;98684.59;;;7.74;100.00
45050;BME280;61798;48.048;-1.928;2024-03-02T17:21:58;98715.03;;;7.85;100.00
45050;BME280;61798;48.048;-1.928;2024-03-02T17:24:04;98710.91;;;7.70;100.00
45050;BME280;61798;48.048;-1.928;2024-03-02T17:26:10;98716.06;;;7.65;100.00
45050;BME280;61798;48.048;-1.928;2024-03-02T17:36:19;98741.16;;;7.57;100.00
45050;BME280;61798;48.048;-1.928;2024-03-02T17:40:42;98749.06;;;7.45;100.00
45050;BME280;61798;48.048;-1.928;2024-03-02T17:47:36;98746.38;;;7.00;100.00
45050;BME280;61798;48.048;-1.928;2024-03-02T17:51:21;98739.59;;;7.04;100.00
45050;BME280;61798;48.048;-1.928;2024-03-02T17:58:20;98772.94;;;7.07;100.00
45050;BME280;61798;48.048;-1.928;2024-03-02T18:07:35;98780.47;;;6.45;100.00
45050;BME280;61798;48.048;-1.928;2024-03-02T18:10:14;98769.50;;;6.28;100.00
45050;BME280;61798;48.048;-1.928;2024-03-02T18:12:48;98774.19;;;6.32;100.00
45050;BME280;61798;48.048;-1.928;2024-03-02T18:15:10;98793.81;;;6.38;100.00
45050;BME280;61798;48.048;-1.928;2024-03-02T18:18:11;98743.47;;;5.77;100.00
45050;BME280;61798;48.048;-1.928;2024-03-02T18:20:34;98796.16;;;6.00;100.00
45050;BME280;61798;48.048;-1.928;2024-03-02T18:23:07;98772.09;;;5.75;100.00
45050;BME280;61798;48.048;-1.928;2024-03-02T18:25:23;98776.41;;;5.69;100.00
45050;BME280;61798;48.048;-1.928;2024-03-02T18:27:35;98770.84;;;5.77;100.00
45050;BME280;61798;48.048;-1.928;2024-03-02T18:30:04;98793.69;;;6.06;100.00
45050;BME280;61798;48.048;-1.928;2024-03-02T18:32:18;98791.50;;;5.61;100.00
45050;BME280;61798;48.048;-1.928;2024-03-02T18:34:26;98783.38;;;5.56;100.00
45050;BME280;61798;48.048;-1.928;2024-03-02T18:36:36;98772.91;;;5.68;100.00
45050;BME280;61798;48.048;-1.928;2024-03-02T18:38:48;98786.00;;;5.63;100.00
45050;BME280;61798;48.048;-1.928;2024-03-02T18:40:58;98757.22;;;5.33;100.00
45050;BME280;61798;48.048;-1.928;2024-03-02T18:43:14;98763.53;;;5.38;100.00
45050;BME280;61798;48.048;-1.928;2024-03-02T18:45:22;98756.38;;;5.18;100.00
45050;BME280;61798;48.048;-1.928;2024-03-02T18:47:31;98802.16;;;5.48;100.00
45050;BME280;61798;48.048;-1.928;2024-03-02T18:49:47;98780.91;;;5.34;100.00
45050;BME280;61798;48.048;-1.928;2024-03-02T18:52:04;98812.38;;;5.65;100.00
45050;BME280;61798;48.048;-1.928;2024-03-02T18:54:22;98813.41;;;5.43;100.00
45050;BME280;61798;48.048;-1.928;2024-03-02T18:56:34;98818.31;;;5.53;100.00
45050;BME280;61798;48.048;-1.928;2024-03-02T18:59:08;98805.63;;;5.14;100.00
45050;BME280;61798;48.048;-1.928;2024-03-02T19:01:21;98797.44;;;5.02;100.00
45050;BME280;61798;48.048;-1.928;2024-03-02T19:03:38;98764.16;;;5.00;100.00
45050;BME280;61798;48.048;-1.928;2024-03-02T19:06:23;98751.88;;;4.99;100.00
45050;BME280;61798;48.048;-1.928;2024-03-02T19:08:36;98775.75;;;4.78;100.00
45050;BME280;61798;48.048;-1.928;2024-03-02T19:10:49;98814.38;;;4.88;100.00
45050;BME280;61798;48.048;-1.928;2024-03-02T19:13:03;98814.00;;;4.97;100.00
45050;BME280;61798;48.048;-1.928;2024-03-02T19:15:45;98811.31;;;4.91;100.00
45050;BME280;61798;48.048;-1.928;2024-03-02T19:18:05;98778.44;;;4.85;100.00
45050;BME280;61798;48.048;-1.928;2024-03-02T19:20:17;98811.53;;;5.03;100.00
45050;BME280;61798;48.048;-1.928;2024-03-02T19:22:32;98790.88;;;4.78;100.00
45050;BME280;61798;48.048;-1.928;2024-03-02T19:24:43;98803.91;;;4.72;100.00
45050;BME280;61798;48.048;-1.928;2024-03-02T19:27:10;98808.56;;;4.57;100.00
45050;BME280;61798;48.048;-1.928;2024-03-02T19:29:41;98765.91;;;4.58;100.00
45050;BME280;61798;48.048;-1.928;2024-03-02T19:32:02;98807.34;;;4.59;100.00
45050;BME280;61798;48.048;-1.928;2024-03-02T19:34:17;98809.34;;;4.50;100.00
45050;BME280;61798;48.048;-1.928;2024-03-02T19:37:02;98796.88;;;4.37;100.00
45050;BME280;61798;48.048;-1.928;2024-03-02T19:39:19;98789.00;;;4.15;100.00
45050;BME280;61798;48.048;-1.928;2024-03-02T19:42:03;98814.34;;;4.18;100.00
45050;BME280;61798;48.048;-1.928;2024-03-02T19:44:40;98772.03;;;4.02;100.00
45050;BME280;61798;48.048;-1.928;2024-03-02T19:47:02;98798.03;;;4.21;100.00
45050;BME280;61798;48.048;-1.928;2024-03-02T19:49:44;98795.63;;;4.33;100.00
45050;BME280;61798;48.048;-1.928;2024-03-02T19:52:01;98807.09;;;4.47;100.00
45050;BME280;61798;48.048;-1.928;2024-03-02T19:54:15;98764.22;;;4.37;100.00
45050;BME280;61798;48.048;-1.928;2024-03-02T19:56:28;98788.03;;;4.23;100.00
45050;BME280;61798;48.048;-1.928;2024-03-02T19:58:53;98784.59;;;4.29;100.00
45050;BME280;61798;48.048;-1.928;2024-03-02T20:01:18;98776.22;;;4.26;100.00
45050;BME280;61798;48.048;-1.928;2024-03-02T20:03:29;98784.97;;;4.26;100.00
45050;BME280;61798;48.048;-1.928;2024-03-02T20:05:54;98790.28;;;4.26;100.00
45050;BME280;61798;48.048;-1.928;2024-03-02T20:08:11;98753.75;;;3.79;100.00
45050;BME280;61798;48.048;-1.928;2024-03-02T20:10:27;98791.63;;;4.08;100.00
45050;BME280;61798;48.048;-1.928;2024-03-02T20:12:40;98783.44;;;4.03;100.00
45050;BME280;61798;48.048;-1.928;2024-03-02T20:15:08;98788.19;;;4.15;100.00
45050;BME280;61798;48.048;-1.928;2024-03-02T20:17:31;98797.91;;;4.00;100.00
45050;BME280;61798;48.048;-1.928;2024-03-02T20:20:04;98783.22;;;3.98;100.00
45050;BME280;61798;48.048;-1.928;2024-03-02T20:22:17;98773.13;;;3.51;100.00
45050;BME280;61798;48.048;-1.928;2024-03-02T20:24:45;98795.72;;;4.11;100.00
45050;BME280;61798;48.048;-1.928;2024-03-02T20:27:13;98777.47;;;3.94;100.00
45050;BME280;61798;48.048;-1.928;2024-03-02T20:29:28;98790.50;;;3.89;100.00
45050;BME280;61798;48.048;-1.928;2024-03-02T20:31:40;98767.09;;;3.93;100.00
45050;BME280;61798;48.048;-1.928;2024-03-02T20:33:53;98767.53;;;3.67;100.00
45050;BME280;61798;48.048;-1.928;2024-03-02T20:36:16;98801.16;;;3.96;100.00
45050;BME280;61798;48.048;-1.928;2024-03-02T20:38:41;98761.25;;;3.68;100.00
45050;BME280;61798;48.048;-1.928;2024-03-02T20:40:51;98734.50;;;3.63;100.00
45050;BME280;61798;48.048;-1.928;2024-03-02T20:43:02;98777.28;;;3.60;100.00
45050;BME280;61798;48.048;-1.928;2024-03-02T20:45:14;98721.00;;;3.51;100.00
45050;BME280;61798;48.048;-1.928;2024-03-02T20:47:24;98733.03;;;3.54;100.00
45050;BME280;61798;48.048;-1.928;2024-03-02T20:49:33;98735.81;;;3.74;100.00
45050;BME280;61798;48.048;-1.928;2024-03-02T20:51:43;98743.16;;;3.79;100.00
45050;BME280;61798;48.048;-1.928;2024-03-02T20:54:01;98753.00;;;3.92;100.00
45050;BME280;61798;48.048;-1.928;2024-03-02T20:56:11;98779.44;;;3.78;100.00
45050;BME280;61798;48.048;-1.928;2024-03-02T20:58:23;98728.50;;;3.47;100.00
45050;BME280;61798;48.048;-1.928;2024-03-02T21:00:32;98784.25;;;3.97;100.00
45050;BME280;61798;48.048;-1.928;2024-03-02T21:02:47;98772.63;;;3.98;100.00
45050;BME280;61798;48.048;-1.928;2024-03-02T21:05:19;98790.25;;;3.77;100.00
45050;BME280;61798;48.048;-1.928;2024-03-02T21:07:33;98726.13;;;3.59;100.00
45050;BME280;61798;48.048;-1.928;2024-03-02T21:10:03;98773.34;;;3.78;100.00
45050;BME280;61798;48.048;-1.928;2024-03-02T21:12:18;98794.41;;;3.57;100.00
45050;BME280;61798;48.048;-1.928;2024-03-02T21:14:30;98727.78;;;3.32;100.00
45050;BME280;61798;48.048;-1.928;2024-03-02T21:16:41;98760.28;;;3.47;100.00
45050;BME280;61798;48.048;-1.928;2024-03-02T21:18:51;98771.69;;;3.77;100.00
45050;BME280;61798;48.048;-1.928;2024-03-02T21:21:07;98757.34;;;3.64;100.00
45050;BME280;61798;48.048;-1.928;2024-03-02T21:23:23;98783.13;;;3.77;100.00
45050;BME280;61798;48.048;-1.928;2024-03-02T21:25:41;98764.63;;;3.55;100.00
45050;BME280;61798;48.048;-1.928;2024-03-02T21:28:06;98773.13;;;3.51;100.00
45050;BME280;61798;48.048;-1.928;2024-03-02T21:30:34;98747.88;;;3.48;100.00
45050;BME280;61798;48.048;-1.928;2024-03-02T21:32:50;98777.25;;;3.53;100.00
45050;BME280;61798;48.048;-1.928;2024-03-02T21:35:06;98723.56;;;3.09;100.00
45050;BME280;61798;48.048;-1.928;2024-03-02T21:37:38;98717.81;;;3.05;100.00
45050;BME280;61798;48.048;-1.928;2024-03-02T21:40:18;98738.34;;;3.25;100.00
45050;BME280;61798;48.048;-1.928;2024-03-02T21:42:49;98688.59;;;2.91;100.00
45050;BME280;61798;48.048;-1.928;2024-03-02T21:45:26;98723.19;;;3.19;100.00
45050;BME280;61798;48.048;-1.928;2024-03-02T21:47:40;98697.09;;;3.09;100.00
45050;BME280;61798;48.048;-1.928;2024-03-02T21:49:56;98735.34;;;3.35;100.00
45050;BME280;61798;48.048;-1.928;2024-03-02T21:52:16;98729.72;;;3.45;100.00
45050;BME280;61798;48.048;-1.928;2024-03-02T21:54:46;98717.84;;;3.34;100.00
45050;BME280;61798;48.048;-1.928;2024-03-02T21:57:11;98717.00;;;3.04;100.00
45050;BME280;61798;48.048;-1.928;2024-03-02T21:59:36;98740.44;;;3.08;100.00
45050;BME280;61798;48.048;-1.928;2024-03-02T22:01:52;98738.63;;;3.37;100.00
45050;BME280;61798;48.048;-1.928;2024-03-02T22:04:16;98705.13;;;3.22;100.00
45050;BME280;61798;48.048;-1.928;2024-03-02T22:06:39;98727.72;;;3.18;100.00
45050;BME280;61798;48.048;-1.928;2024-03-02T22:09:04;98724.56;;;3.08;100.00
45050;BME280;61798;48.048;-1.928;2024-03-02T22:11:17;98742.03;;;3.31;100.00
45050;BME280;61798;48.048;-1.928;2024-03-02T22:13:37;98720.16;;;2.93;100.00
45050;BME280;61798;48.048;-1.928;2024-03-02T22:15:51;98720.91;;;3.09;100.00
45050;BME280;61798;48.048;-1.928;2024-03-02T22:18:14;98726.50;;;3.21;100.00
45050;BME280;61798;48.048;-1.928;2024-03-02T22:20:44;98712.09;;;3.01;100.00
45050;BME280;61798;48.048;-1.928;2024-03-02T22:23:07;98703.34;;;2.79;100.00
45050;BME280;61798;48.048;-1.928;2024-03-02T22:25:18;98723.06;;;2.98;100.00
45050;BME280;61798;48.048;-1.928;2024-03-02T22:27:39;98741.59;;;2.76;100.00
45050;BME280;61798;48.048;-1.928;2024-03-02T22:29:51;98685.28;;;2.60;100.00
45050;BME280;61798;48.048;-1.928;2024-03-02T22:32:14;98702.16;;;2.59;100.00
45050;BME280;61798;48.048;-1.928;2024-03-02T22:34:29;98708.75;;;2.92;100.00
45050;BME280;61798;48.048;-1.928;2024-03-02T22:36:43;98693.63;;;3.08;100.00
45050;BME280;61798;48.048;-1.928;2024-03-02T22:38:57;98713.38;;;2.61;100.00
45050;BME280;61798;48.048;-1.928;2024-03-02T22:41:07;98735.91;;;2.79;100.00
45050;BME280;61798;48.048;-1.928;2024-03-02T22:43:19;98689.75;;;2.60;100.00
45050;BME280;61798;48.048;-1.928;2024-03-02T22:45:33;98692.97;;;2.55;100.00
45050;BME280;61798;48.048;-1.928;2024-03-02T22:47:50;98719.84;;;2.81;100.00
45050;BME280;61798;48.048;-1.928;2024-03-02T22:50:11;98734.03;;;2.73;100.00
45050;BME280;61798;48.048;-1.928;2024-03-02T22:52:27;98708.47;;;2.58;100.00
45050;BME280;61798;48.048;-1.928;2024-03-02T22:54:50;98718.09;;;2.88;100.00
45050;BME280;61798;48.048;-1.928;2024-03-02T22:57:05;98691.47;;;2.46;100.00
45050;BME280;61798;48.048;-1.928;2024-03-02T22:59:39;98669.31;;;2.47;100.00
45050;BME280;61798;48.048;-1.928;2024-03-02T23:01:49;98666.25;;;2.28;100.00
45050;BME280;61798;48.048;-1.928;2024-03-02T23:03:56;98719.28;;;2.63;100.00
45050;BME280;61798;48.048;-1.928;2024-03-02T23:06:05;98676.16;;;2.41;100.00
45050;BME280;61798;48.048;-1.928;2024-03-02T23:08:13;98683.63;;;2.59;100.00
45050;BME280;61798;48.048;-1.928;2024-03-02T23:10:24;98698.41;;;2.47;100.00
45050;BME280;61798;48.048;-1.928;2024-03-02T23:12:33;98723.25;;;2.30;100.00
45050;BME280;61798;48.048;-1.928;2024-03-02T23:14:42;98708.38;;;2.29;100.00
45050;BME280;61798;48.048;-1.928;2024-03-02T23:16:54;98716.31;;;2.29;100.00
45050;BME280;61798;48.048;-1.928;2024-03-02T23:19:00;98708.16;;;2.31;100.00
45050;BME280;61798;48.048;-1.928;2024-03-02T23:21:14;98690.63;;;2.08;100.00
45050;BME280;61798;48.048;-1.928;2024-03-02T23:23:27;98729.59;;;2.36;100.00
45050;BME280;61798;48.048;-1.928;2024-03-02T23:25:36;98704.44;;;1.88;100.00
45050;BME280;61798;48.048;-1.928;2024-03-02T23:27:49;98710.19;;;2.29;100.00
45050;BME280;61798;48.048;-1.928;2024-03-02T23:29:59;98732.50;;;2.41;100.00